sensor_id;sensor_type;location;lat;lon;timestamp;P1;durP1;ratioP1;P2;durP2;ratioP2
9248;SDS011;4660;41.768;26.198;2024-01-30T00:01:22;10.03;;;6.40;;
9248;SDS011;4660;41.768;26.198;2024-01-30T00:03:47;9.53;;;6.73;;
9248;SDS011;4660;41.768;26.198;2024-01-30T00:06:12;12.03;;;6.47;;
9248;SDS011;4660;41.768;26.198;2024-01-30T00:08:38;12.23;;;4.50;;
9248;SDS011;4660;41.768;26.198;2024-01-30T00:11:03;7.80;;;5.37;;
9248;SDS011;4660;41.768;26.198;2024-01-30T00:13:29;15.23;;;7.40;;
9248;SDS011;4660;41.768;26.198;2024-01-30T00:15:54;15.83;;;8.30;;
9248;SDS011;4660;41.768;26.198;2024-01-30T00:18:20;10.50;;;7.03;;
9248;SDS011;4660;41.768;26.198;2024-01-30T00:20:46;11.17;;;7.40;;
9248;SDS011;4660;41.768;26.198;2024-01-30T00:23:12;11.00;;;5.97;;
9248;SDS011;4660;41.768;26.198;2024-01-30T00:25:38;9.30;;;7.30;;
9248;SDS011;4660;41.768;26.198;2024-01-30T00:28:03;7.80;;;5.90;;
9248;SDS011;4660;41.768;26.198;2024-01-30T00:30:29;8.63;;;5.83;;
9248;SDS011;4660;41.768;26.198;2024-01-30T00:32:54;7.27;;;5.30;;
9248;SDS011;4660;41.768;26.198;2024-01-30T00:35:20;6.47;;;4.97;;
9248;SDS011;4660;41.768;26.198;2024-01-30T00:37:47;9.37;;;4.67;;
9248;SDS011;4660;41.768;26.198;2024-01-30T00:40:13;6.77;;;5.10;;
9248;SDS011;4660;41.768;26.198;2024-01-30T00:42:43;8.97;;;4.73;;
9248;SDS011;4660;41.768;26.198;2024-01-30T00:45:15;8.77;;;5.70;;
9248;SDS011;4660;41.768;26.198;2024-01-30T00:47:42;9.10;;;5.60;;
9248;SDS011;4660;41.768;26.198;2024-01-30T00:50:08;7.33;;;4.73;;
9248;SDS011;4660;41.768;26.198;2024-01-30T00:52:33;9.17;;;5.53;;
9248;SDS011;4660;41.768;26.198;2024-01-30T00:54:59;6.87;;;3.83;;
9248;SDS011;4660;41.768;26.198;2024-01-30T00:57:25;15.73;;;6.23;;
9248;SDS011;4660;41.768;26.198;2024-01-30T00:59:50;7.37;;;5.10;;
9248;SDS011;4660;41.768;26.198;2024-01-30T01:02:16;8.23;;;4.83;;
9248;SDS011;4660;41.768;26.198;2024-01-30T01:04:42;6.30;;;4.63;;
9248;SDS011;4660;41.768;26.198;2024-01-30T01:07:09;7.10;;;5.33;;
9248;SDS011;4660;41.768;26.198;2024-01-30T01:09:35;7.97;;;5.33;;
9248;SDS011;4660;41.768;26.198;2024-01-30T01:12:01;6.17;;;4.20;;
9248;SDS011;4660;41.768;26.198;2024-01-30T01:14:28;7.17;;;5.50;;
9248;SDS011;4660;41.768;26.198;2024-01-30T01:16:53;7.40;;;4.80;;
9248;SDS011;4660;41.768;26.198;2024-01-30T01:19:19;6.10;;;4.30;;
9248;SDS011;4660;41.768;26.198;2024-01-30T01:21:44;8.70;;;5.57;;
9248;SDS011;4660;41.768;26.198;2024-01-30T01:24:10;6.87;;;5.57;;
9248;SDS011;4660;41.768;26.198;2024-01-30T01:26:35;6.00;;;4.23;;
9248;SDS011;4660;41.768;26.198;2024-01-30T01:29:01;6.83;;;4.53;;
9248;SDS011;4660;41.768;26.198;2024-01-30T01:31:26;6.57;;;5.20;;
9248;SDS011;4660;41.768;26.198;2024-01-30T01:33:54;6.93;;;4.87;;
9248;SDS011;4660;41.768;26.198;2024-01-30T01:36:20;13.93;;;7.37;;
9248;SDS011;4660;41.768;26.198;2024-01-30T01:38:45;8.13;;;5.20;;
9248;SDS011;4660;41.768;26.198;2024-01-30T01:41:11;9.27;;;5.20;;
9248;SDS011;4660;41.768;26.198;2024-01-30T01:43:36;7.20;;;4.37;;
9248;SDS011;4660;41.768;26.198;2024-01-30T01:46:04;7.90;;;5.53;;
9248;SDS011;4660;41.768;26.198;2024-01-30T01:48:30;7.57;;;5.50;;
9248;SDS011;4660;41.768;26.198;2024-01-30T01:50:56;7.90;;;5.10;;
9248;SDS011;4660;41.768;26.198;2024-01-30T01:53:22;8.70;;;5.23;;
9248;SDS011;4660;41.768;26.198;2024-01-30T01:55:48;5.93;;;4.30;;
9248;SDS011;4660;41.768;26.198;2024-01-30T01:58:14;11.13;;;6.10;;
9248;SDS011;4660;41.768;26.198;2024-01-30T02:00:39;6.80;;;4.73;;
9248;SDS011;4660;41.768;26.198;2024-01-30T02:03:06;9.00;;;5.73;;
9248;SDS011;4660;41.768;26.198;2024-01-30T02:05:35;7.47;;;4.90;;
9248;SDS011;4660;41.768;26.198;2024-01-30T02:08:02;6.47;;;3.77;;
9248;SDS011;4660;41.768;26.198;2024-01-30T02:10:28;3.53;;;3.10;;
9248;SDS011;4660;41.768;26.198;2024-01-30T02:12:54;8.47;;;5.20;;
9248;SDS011;4660;41.768;26.198;2024-01-30T02:15:19;9.30;;;5.73;;
9248;SDS011;4660;41.768;26.198;2024-01-30T02:17:45;6.13;;;4.57;;
9248;SDS011;4660;41.768;26.198;2024-01-30T02:20:10;8.83;;;4.90;;
9248;SDS011;4660;41.768;26.198;2024-01-30T02:22:36;11.90;;;5.97;;
9248;SDS011;4660;41.768;26.198;2024-01-30T02:25:03;6.23;;;4.20;;
9248;SDS011;4660;41.768;26.198;2024-01-30T02:27:29;7.63;;;4.43;;
9248;SDS011;4660;41.768;26.198;2024-01-30T02:29:54;9.17;;;4.93;;
9248;SDS011;4660;41.768;26.198;2024-01-30T02:32:20;8.47;;;5.00;;
9248;SDS011;4660;41.768;26.198;2024-01-30T02:34:45;6.57;;;4.57;;
9248;SDS011;4660;41.768;26.198;2024-01-30T02:37:11;8.47;;;5.37;;
9248;SDS011;4660;41.768;26.198;2024-01-30T02:39:36;9.23;;;5.33;;
9248;SDS011;4660;41.768;26.198;2024-01-30T02:42:02;8.33;;;5.17;;
9248;SDS011;4660;41.768;26.198;2024-01-30T02:44:27;4.60;;;3.47;;
9248;SDS011;4660;41.768;26.198;2024-01-30T02:46:52;9.37;;;5.20;;
9248;SDS011;4660;41.768;26.198;2024-01-30T02:49:19;7.30;;;5.33;;
9248;SDS011;4660;41.768;26.198;2024-01-30T02:51:45;4.90;;;3.93;;
9248;SDS011;4660;41.768;26.198;2024-01-30T02:54:10;8.73;;;5.07;;
9248;SDS011;4660;41.768;26.198;2024-01-30T02:56:36;6.90;;;4.67;;
9248;SDS011;4660;41.768;26.198;2024-01-30T02:59:02;7.33;;;4.57;;
9248;SDS011;4660;41.768;26.198;2024-01-30T03:01:27;6.50;;;4.43;;
9248;SDS011;4660;41.768;26.198;2024-01-30T03:04:08;8.43;;;5.07;;
9248;SDS011;4660;41.768;26.198;2024-01-30T03:06:44;9.60;;;4.27;;
9248;SDS011;4660;41.768;26.198;2024-01-30T03:09:10;6.93;;;4.20;;
9248;SDS011;4660;41.768;26.198;2024-01-30T03:11:35;8.10;;;4.67;;
9248;SDS011;4660;41.768;26.198;2024-01-30T03:14:01;6.83;;;4.93;;
9248;SDS011;4660;41.768;26.198;2024-01-30T03:16:27;5.23;;;4.17;;
9248;SDS011;4660;41.768;26.198;2024-01-30T03:18:52;5.73;;;3.80;;
9248;SDS011;4660;41.768;26.198;2024-01-30T03:21:18;6.47;;;4.60;;
9248;SDS011;4660;41.768;26.198;2024-01-30T03:23:43;8.77;;;5.57;;
9248;SDS011;4660;41.768;26.198;2024-01-30T03:26:09;6.70;;;4.60;;
9248;SDS011;4660;41.768;26.198;2024-01-30T03:28:36;8.70;;;5.47;;
9248;SDS011;4660;41.768;26.198;2024-01-30T03:31:01;9.90;;;5.83;;
9248;SDS011;4660;41.768;26.198;2024-01-30T03:33:27;11.37;;;5.80;;
9248;SDS011;4660;41.768;26.198;2024-01-30T03:35:53;6.83;;;4.60;;
9248;SDS011;4660;41.768;26.198;2024-01-30T03:38:18;9.40;;;5.97;;
9248;SDS011;4660;41.768;26.198;2024-01-30T03:40:44;9.00;;;5.37;;
9248;SDS011;4660;41.768;26.198;2024-01-30T03:43:09;10.13;;;5.30;;
9248;SDS011;4660;41.768;26.198;2024-01-30T03:45:35;7.77;;;5.20;;
9248;SDS011;4660;41.768;26.198;2024-01-30T03:48:00;7.40;;;5.20;;
9248;SDS011;4660;41.768;26.198;2024-01-30T03:50:26;7.13;;;4.57;;
9248;SDS011;4660;41.768;26.198;2024-01-30T03:52:53;7.20;;;4.70;;
9248;SDS011;4660;41.768;26.198;2024-01-30T03:55:18;9.63;;;5.53;;
9248;SDS011;4660;41.768;26.198;2024-01-30T03:57:44;7.40;;;5.30;;
9248;SDS011;4660;41.768;26.198;2024-01-30T04:00:09;6.87;;;3.70;;
9248;SDS011;4660;41.768;26.198;2024-01-30T04:02:35;7.50;;;4.70;;
9248;SDS011;4660;41.768;26.198;2024-01-30T04:05:01;6.07;;;4.13;;
9248;SDS011;4660;41.768;26.198;2024-01-30T04:07:26;8.93;;;5.70;;
9248;SDS011;4660;41.768;26.198;2024-01-30T04:09:52;11.27;;;5.73;;
9248;SDS011;4660;41.768;26.198;2024-01-30T04:12:17;6.87;;;4.90;;
9248;SDS011;4660;41.768;26.198;2024-01-30T04:14:43;6.80;;;4.97;;
9248;SDS011;4660;41.768;26.198;2024-01-30T04:17:09;8.93;;;5.27;;
9248;SDS011;4660;41.768;26.198;2024-01-30T04:19:37;9.17;;;5.73;;
9248;SDS011;4660;41.768;26.198;2024-01-30T04:22:02;8.37;;;5.57;;
9248;SDS011;4660;41.768;26.198;2024-01-30T04:24:28;8.07;;;5.80;;
9248;SDS011;4660;41.768;26.198;2024-01-30T04:26:53;12.33;;;5.83;;
9248;SDS011;4660;41.768;26.198;2024-01-30T04:29:19;9.37;;;6.10;;
9248;SDS011;4660;41.768;26.198;2024-01-30T04:31:45;8.97;;;6.00;;
9248;SDS011;4660;41.768;26.198;2024-01-30T04:34:10;13.47;;;6.90;;
9248;SDS011;4660;41.768;26.198;2024-01-30T04:36:36;9.57;;;6.17;;
9248;SDS011;4660;41.768;26.198;2024-01-30T04:39:01;7.30;;;4.60;;
9248;SDS011;4660;41.768;26.198;2024-01-30T04:41:27;8.47;;;5.17;;
9248;SDS011;4660;41.768;26.198;2024-01-30T04:43:56;12.07;;;6.47;;
9248;SDS011;4660;41.768;26.198;2024-01-30T04:46:22;10.37;;;6.67;;
9248;SDS011;4660;41.768;26.198;2024-01-30T04:48:47;9.83;;;6.53;;
9248;SDS011;4660;41.768;26.198;2024-01-30T04:51:13;10.60;;;6.40;;
9248;SDS011;4660;41.768;26.198;2024-01-30T04:53:38;10.70;;;6.53;;
9248;SDS011;4660;41.768;26.198;2024-01-30T04:56:05;14.07;;;7.90;;
9248;SDS011;4660;41.768;26.198;2024-01-30T04:58:30;10.57;;;6.33;;
9248;SDS011;4660;41.768;26.198;2024-01-30T05:00:56;10.90;;;6.73;;
9248;SDS011;4660;41.768;26.198;2024-01-30T05:03:22;12.47;;;6.47;;
9248;SDS011;4660;41.768;26.198;2024-01-30T05:05:48;10.40;;;6.50;;
9248;SDS011;4660;41.768;26.198;2024-01-30T05:08:14;7.63;;;4.93;;
9248;SDS011;4660;41.768;26.198;2024-01-30T05:10:40;11.93;;;7.03;;
9248;SDS011;4660;41.768;26.198;2024-01-30T05:13:05;9.47;;;6.53;;
9248;SDS011;4660;41.768;26.198;2024-01-30T05:15:30;12.70;;;6.70;;
9248;SDS011;4660;41.768;26.198;2024-01-30T05:17:56;13.97;;;6.93;;
9248;SDS011;4660;41.768;26.198;2024-01-30T05:20:21;8.50;;;6.60;;
9248;SDS011;4660;41.768;26.198;2024-01-30T05:22:47;12.27;;;7.27;;
9248;SDS011;4660;41.768;26.198;2024-01-30T05:25:13;9.97;;;6.80;;
9248;SDS011;4660;41.768;26.198;2024-01-30T05:27:38;11.83;;;6.67;;
9248;SDS011;4660;41.768;26.198;2024-01-30T05:30:05;10.30;;;6.60;;
9248;SDS011;4660;41.768;26.198;2024-01-30T05:32:31;10.87;;;6.17;;
9248;SDS011;4660;41.768;26.198;2024-01-30T05:34:57;12.33;;;7.40;;
9248;SDS011;4660;41.768;26.198;2024-01-30T05:37:22;11.93;;;6.77;;
9248;SDS011;4660;41.768;26.198;2024-01-30T05:39:48;10.80;;;7.47;;
9248;SDS011;4660;41.768;26.198;2024-01-30T05:42:13;12.60;;;7.03;;
9248;SDS011;4660;41.768;26.198;2024-01-30T05:44:40;12.23;;;7.17;;
9248;SDS011;4660;41.768;26.198;2024-01-30T05:47:05;9.73;;;6.20;;
9248;SDS011;4660;41.768;26.198;2024-01-30T05:49:31;9.67;;;5.67;;
9248;SDS011;4660;41.768;26.198;2024-01-30T05:51:56;9.73;;;5.93;;
9248;SDS011;4660;41.768;26.198;2024-01-30T05:54:22;10.17;;;5.37;;
9248;SDS011;4660;41.768;26.198;2024-01-30T05:56:47;8.20;;;5.70;;
9248;SDS011;4660;41.768;26.198;2024-01-30T05:59:13;10.10;;;5.37;;
9248;SDS011;4660;41.768;26.198;2024-01-30T06:01:44;10.37;;;6.70;;
9248;SDS011;4660;41.768;26.198;2024-01-30T06:04:11;8.20;;;5.87;;
9248;SDS011;4660;41.768;26.198;2024-01-30T06:06:36;10.53;;;5.17;;
9248;SDS011;4660;41.768;26.198;2024-01-30T06:09:02;8.33;;;5.87;;
9248;SDS011;4660;41.768;26.198;2024-01-30T06:11:27;7.43;;;5.23;;
9248;SDS011;4660;41.768;26.198;2024-01-30T06:13:53;11.20;;;6.70;;
9248;SDS011;4660;41.768;26.198;2024-01-30T06:16:18;8.70;;;6.07;;
9248;SDS011;4660;41.768;26.198;2024-01-30T06:18:46;11.27;;;6.37;;
9248;SDS011;4660;41.768;26.198;2024-01-30T06:21:13;7.87;;;5.07;;
9248;SDS011;4660;41.768;26.198;2024-01-30T06:23:38;11.83;;;5.60;;
9248;SDS011;4660;41.768;26.198;2024-01-30T06:26:04;7.70;;;4.90;;
9248;SDS011;4660;41.768;26.198;2024-01-30T06:28:31;12.63;;;6.67;;
9248;SDS011;4660;41.768;26.198;2024-01-30T06:30:57;11.37;;;6.63;;
9248;SDS011;4660;41.768;26.198;2024-01-30T06:33:22;13.40;;;7.17;;
9248;SDS011;4660;41.768;26.198;2024-01-30T06:35:48;10.03;;;7.17;;
9248;SDS011;4660;41.768;26.198;2024-01-30T06:38:13;11.93;;;6.23;;
9248;SDS011;4660;41.768;26.198;2024-01-30T06:40:41;10.47;;;5.97;;
9248;SDS011;4660;41.768;26.198;2024-01-30T06:43:07;7.63;;;5.43;;
9248;SDS011;4660;41.768;26.198;2024-01-30T06:45:33;9.60;;;5.17;;
9248;SDS011;4660;41.768;26.198;2024-01-30T06:47:59;9.37;;;6.37;;
9248;SDS011;4660;41.768;26.198;2024-01-30T06:50:25;8.27;;;5.50;;
9248;SDS011;4660;41.768;26.198;2024-01-30T06:52:51;10.37;;;6.47;;
9248;SDS011;4660;41.768;26.198;2024-01-30T06:55:17;6.67;;;4.97;;
9248;SDS011;4660;41.768;26.198;2024-01-30T06:57:43;7.67;;;4.77;;
9248;SDS011;4660;41.768;26.198;2024-01-30T07:00:09;8.47;;;6.07;;
9248;SDS011;4660;41.768;26.198;2024-01-30T07:02:35;11.70;;;5.30;;
9248;SDS011;4660;41.768;26.198;2024-01-30T07:05:00;8.87;;;5.57;;
9248;SDS011;4660;41.768;26.198;2024-01-30T07:07:26;9.93;;;5.83;;
9248;SDS011;4660;41.768;26.198;2024-01-30T07:09:51;9.93;;;6.07;;
9248;SDS011;4660;41.768;26.198;2024-01-30T07:12:22;6.43;;;5.13;;
9248;SDS011;4660;41.768;26.198;2024-01-30T07:14:51;9.67;;;5.67;;
9248;SDS011;4660;41.768;26.198;2024-01-30T07:17:17;8.20;;;3.87;;
9248;SDS011;4660;41.768;26.198;2024-01-30T07:19:42;8.10;;;4.23;;
9248;SDS011;4660;41.768;26.198;2024-01-30T07:22:08;7.73;;;5.47;;
9248;SDS011;4660;41.768;26.198;2024-01-30T07:24:34;8.77;;;4.50;;
9248;SDS011;4660;41.768;26.198;2024-01-30T07:26:59;10.90;;;5.30;;
9248;SDS011;4660;41.768;26.198;2024-01-30T07:29:26;11.47;;;5.03;;
9248;SDS011;4660;41.768;26.198;2024-01-30T07:31:52;7.90;;;4.40;;
9248;SDS011;4660;41.768;26.198;2024-01-30T07:34:17;5.97;;;4.33;;
9248;SDS011;4660;41.768;26.198;2024-01-30T07:36:43;5.17;;;3.53;;
9248;SDS011;4660;41.768;26.198;2024-01-30T07:39:08;6.50;;;4.47;;
9248;SDS011;4660;41.768;26.198;2024-01-30T07:41:35;4.97;;;3.57;;
9248;SDS011;4660;41.768;26.198;2024-01-30T07:44:00;7.03;;;3.97;;
9248;SDS011;4660;41.768;26.198;2024-01-30T07:46:26;5.63;;;4.17;;
9248;SDS011;4660;41.768;26.198;2024-01-30T07:48:51;5.90;;;3.77;;
9248;SDS011;4660;41.768;26.198;2024-01-30T07:51:17;6.93;;;4.37;;
9248;SDS011;4660;41.768;26.198;2024-01-30T07:53:43;5.87;;;4.43;;
9248;SDS011;4660;41.768;26.198;2024-01-30T07:56:10;6.10;;;3.77;;
9248;SDS011;4660;41.768;26.198;2024-01-30T07:58:35;8.93;;;4.03;;
9248;SDS011;4660;41.768;26.198;2024-01-30T08:01:01;6.07;;;3.20;;
9248;SDS011;4660;41.768;26.198;2024-01-30T08:03:26;5.43;;;4.00;;
9248;SDS011;4660;41.768;26.198;2024-01-30T08:05:52;6.43;;;4.13;;
9248;SDS011;4660;41.768;26.198;2024-01-30T08:08:17;8.00;;;4.30;;
9248;SDS011;4660;41.768;26.198;2024-01-30T08:10:43;5.93;;;3.50;;
9248;SDS011;4660;41.768;26.198;2024-01-30T08:13:08;7.07;;;4.20;;
9248;SDS011;4660;41.768;26.198;2024-01-30T08:15:34;5.37;;;4.23;;
9248;SDS011;4660;41.768;26.198;2024-01-30T08:18:00;7.07;;;4.33;;
9248;SDS011;4660;41.768;26.198;2024-01-30T08:20:25;6.53;;;4.60;;
9248;SDS011;4660;41.768;26.198;2024-01-30T08:22:51;8.33;;;5.03;;
9248;SDS011;4660;41.768;26.198;2024-01-30T08:25:17;7.93;;;4.83;;
9248;SDS011;4660;41.768;26.198;2024-01-30T08:27:43;7.33;;;5.00;;
9248;SDS011;4660;41.768;26.198;2024-01-30T08:30:10;8.40;;;5.03;;
9248;SDS011;4660;41.768;26.198;2024-01-30T08:32:37;9.30;;;5.30;;
9248;SDS011;4660;41.768;26.198;2024-01-30T08:35:02;7.50;;;4.80;;
9248;SDS011;4660;41.768;26.198;2024-01-30T08:37:29;5.10;;;3.33;;
9248;SDS011;4660;41.768;26.198;2024-01-30T08:39:54;7.33;;;4.07;;
9248;SDS011;4660;41.768;26.198;2024-01-30T08:42:20;7.27;;;4.07;;
9248;SDS011;4660;41.768;26.198;2024-01-30T08:44:50;5.00;;;3.70;;
9248;SDS011;4660;41.768;26.198;2024-01-30T08:47:17;7.37;;;4.97;;
9248;SDS011;4660;41.768;26.198;2024-01-30T08:49:43;9.97;;;5.80;;
9248;SDS011;4660;41.768;26.198;2024-01-30T08:52:10;7.77;;;5.43;;
9248;SDS011;4660;41.768;26.198;2024-01-30T08:54:36;8.53;;;5.17;;
9248;SDS011;4660;41.768;26.198;2024-01-30T08:57:02;6.13;;;4.63;;
9248;SDS011;4660;41.768;26.198;2024-01-30T08:59:29;4.70;;;4.03;;
9248;SDS011;4660;41.768;26.198;2024-01-30T09:01:55;5.47;;;3.67;;
9248;SDS011;4660;41.768;26.198;2024-01-30T09:04:23;3.13;;;2.67;;
9248;SDS011;4660;41.768;26.198;2024-01-30T09:06:49;7.87;;;4.10;;
9248;SDS011;4660;41.768;26.198;2024-01-30T09:09:14;6.23;;;3.53;;
9248;SDS011;4660;41.768;26.198;2024-01-30T09:11:40;6.60;;;4.03;;
9248;SDS011;4660;41.768;26.198;2024-01-30T09:14:06;9.63;;;5.10;;
9248;SDS011;4660;41.768;26.198;2024-01-30T09:16:31;5.43;;;3.70;;
9248;SDS011;4660;41.768;26.198;2024-01-30T09:18:57;6.03;;;4.20;;
9248;SDS011;4660;41.768;26.198;2024-01-30T09:21:22;5.70;;;3.90;;
9248;SDS011;4660;41.768;26.198;2024-01-30T09:23:48;4.13;;;3.17;;
9248;SDS011;4660;41.768;26.198;2024-01-30T09:26:14;6.17;;;3.93;;
9248;SDS011;4660;41.768;26.198;2024-01-30T09:28:39;5.13;;;3.77;;
9248;SDS011;4660;41.768;26.198;2024-01-30T09:31:10;6.63;;;4.00;;
9248;SDS011;4660;41.768;26.198;2024-01-30T09:33:37;4.93;;;3.50;;
9248;SDS011;4660;41.768;26.198;2024-01-30T09:36:04;5.73;;;3.67;;
9248;SDS011;4660;41.768;26.198;2024-01-30T09:38:30;6.23;;;4.13;;
9248;SDS011;4660;41.768;26.198;2024-01-30T09:40:56;6.40;;;3.70;;
9248;SDS011;4660;41.768;26.198;2024-01-30T09:43:29;6.83;;;4.63;;
9248;SDS011;4660;41.768;26.198;2024-01-30T09:45:58;3.50;;;2.83;;
9248;SDS011;4660;41.768;26.198;2024-01-30T09:48:27;5.43;;;3.73;;
9248;SDS011;4660;41.768;26.198;2024-01-30T09:50:52;4.77;;;3.47;;
9248;SDS011;4660;41.768;26.198;2024-01-30T09:53:19;4.83;;;3.27;;
9248;SDS011;4660;41.768;26.198;2024-01-30T09:55:44;7.13;;;3.40;;
9248;SDS011;4660;41.768;26.198;2024-01-30T09:58:12;4.67;;;2.70;;
9248;SDS011;4660;41.768;26.198;2024-01-30T10:00:38;5.03;;;3.63;;
9248;SDS011;4660;41.768;26.198;2024-01-30T10:03:04;4.90;;;3.60;;
9248;SDS011;4660;41.768;26.198;2024-01-30T10:05:40;6.67;;;4.10;;
9248;SDS011;4660;41.768;26.198;2024-01-30T10:08:06;5.17;;;3.30;;
9248;SDS011;4660;41.768;26.198;2024-01-30T10:10:35;5.67;;;3.50;;
9248;SDS011;4660;41.768;26.198;2024-01-30T10:13:01;4.60;;;3.23;;
9248;SDS011;4660;41.768;26.198;2024-01-30T10:15:27;5.13;;;3.70;;
9248;SDS011;4660;41.768;26.198;2024-01-30T10:17:54;8.60;;;3.60;;
9248;SDS011;4660;41.768;26.198;2024-01-30T10:20:20;4.87;;;3.70;;
9248;SDS011;4660;41.768;26.198;2024-01-30T10:22:47;6.40;;;4.00;;
9248;SDS011;4660;41.768;26.198;2024-01-30T10:25:14;6.13;;;3.67;;
9248;SDS011;4660;41.768;26.198;2024-01-30T10:27:40;5.80;;;3.57;;
9248;SDS011;4660;41.768;26.198;2024-01-30T10:30:06;4.97;;;3.23;;
9248;SDS011;4660;41.768;26.198;2024-01-30T10:32:33;8.13;;;3.20;;
9248;SDS011;4660;41.768;26.198;2024-01-30T10:34:58;6.67;;;3.27;;
9248;SDS011;4660;41.768;26.198;2024-01-30T10:37:24;5.17;;;3.53;;
9248;SDS011;4660;41.768;26.198;2024-01-30T10:39:50;5.03;;;3.83;;
9248;SDS011;4660;41.768;26.198;2024-01-30T10:42:20;6.30;;;3.73;;
9248;SDS011;4660;41.768;26.198;2024-01-30T10:45:11;4.10;;;2.90;;
9248;SDS011;4660;41.768;26.198;2024-01-30T10:47:48;6.33;;;2.50;;
9248;SDS011;4660;41.768;26.198;2024-01-30T10:50:15;4.23;;;2.93;;
9248;SDS011;4660;41.768;26.198;2024-01-30T10:52:41;6.20;;;3.80;;
9248;SDS011;4660;41.768;26.198;2024-01-30T10:55:09;4.83;;;3.17;;
9248;SDS011;4660;41.768;26.198;2024-01-30T10:57:35;4.80;;;3.53;;
9248;SDS011;4660;41.768;26.198;2024-01-30T11:00:02;4.23;;;3.10;;
9248;SDS011;4660;41.768;26.198;2024-01-30T11:02:37;4.50;;;3.00;;
9248;SDS011;4660;41.768;26.198;2024-01-30T11:05:05;8.00;;;3.37;;
9248;SDS011;4660;41.768;26.198;2024-01-30T11:07:30;5.20;;;3.33;;
9248;SDS011;4660;41.768;26.198;2024-01-30T11:10:00;4.63;;;3.27;;
9248;SDS011;4660;41.768;26.198;2024-01-30T11:12:30;8.43;;;4.67;;
9248;SDS011;4660;41.768;26.198;2024-01-30T11:15:04;10.07;;;5.40;;
9248;SDS011;4660;41.768;26.198;2024-01-30T11:17:41;4.83;;;3.50;;
9248;SDS011;4660;41.768;26.198;2024-01-30T11:20:11;7.27;;;3.40;;
9248;SDS011;4660;41.768;26.198;2024-01-30T11:22:52;4.60;;;3.47;;
9248;SDS011;4660;41.768;26.198;2024-01-30T11:25:19;4.73;;;3.37;;
9248;SDS011;4660;41.768;26.198;2024-01-30T11:27:46;4.30;;;2.83;;
9248;SDS011;4660;41.768;26.198;2024-01-30T11:30:24;6.27;;;3.60;;
9248;SDS011;4660;41.768;26.198;2024-01-30T11:33:12;4.87;;;2.87;;
9248;SDS011;4660;41.768;26.198;2024-01-30T11:35:52;5.30;;;3.70;;
9248;SDS011;4660;41.768;26.198;2024-01-30T11:38:18;7.00;;;4.17;;
9248;SDS011;4660;41.768;26.198;2024-01-30T11:40:43;6.90;;;3.60;;
9248;SDS011;4660;41.768;26.198;2024-01-30T11:43:09;4.23;;;2.90;;
9248;SDS011;4660;41.768;26.198;2024-01-30T11:45:35;7.20;;;3.67;;
9248;SDS011;4660;41.768;26.198;2024-01-30T11:48:01;5.17;;;2.77;;
9248;SDS011;4660;41.768;26.198;2024-01-30T11:50:29;4.40;;;3.60;;
9248;SDS011;4660;41.768;26.198;2024-01-30T11:52:57;4.03;;;3.10;;
9248;SDS011;4660;41.768;26.198;2024-01-30T11:55:24;6.57;;;3.77;;
9248;SDS011;4660;41.768;26.198;2024-01-30T11:57:50;3.97;;;2.80;;
9248;SDS011;4660;41.768;26.198;2024-01-30T12:00:18;3.03;;;2.70;;
9248;SDS011;4660;41.768;26.198;2024-01-30T12:02:49;5.87;;;3.27;;
9248;SDS011;4660;41.768;26.198;2024-01-30T12:05:16;4.67;;;3.40;;
9248;SDS011;4660;41.768;26.198;2024-01-30T12:07:44;7.00;;;3.03;;
9248;SDS011;4660;41.768;26.198;2024-01-30T12:10:09;5.23;;;3.70;;
9248;SDS011;4660;41.768;26.198;2024-01-30T12:12:36;7.03;;;3.50;;
9248;SDS011;4660;41.768;26.198;2024-01-30T12:15:02;6.37;;;4.33;;
9248;SDS011;4660;41.768;26.198;2024-01-30T12:17:29;4.73;;;3.63;;
9248;SDS011;4660;41.768;26.198;2024-01-30T12:20:05;6.10;;;3.97;;
9248;SDS011;4660;41.768;26.198;2024-01-30T12:22:33;4.93;;;2.90;;
9248;SDS011;4660;41.768;26.198;2024-01-30T12:25:03;5.57;;;3.77;;
9248;SDS011;4660;41.768;26.198;2024-01-30T12:27:43;4.43;;;3.30;;
9248;SDS011;4660;41.768;26.198;2024-01-30T12:30:10;5.50;;;3.47;;
9248;SDS011;4660;41.768;26.198;2024-01-30T12:32:39;4.97;;;3.23;;
9248;SDS011;4660;41.768;26.198;2024-01-30T12:35:12;4.43;;;3.17;;
9248;SDS011;4660;41.768;26.198;2024-01-30T12:37:38;4.10;;;2.90;;
9248;SDS011;4660;41.768;26.198;2024-01-30T12:40:04;4.77;;;3.77;;
9248;SDS011;4660;41.768;26.198;2024-01-30T12:42:31;3.20;;;2.90;;
9248;SDS011;4660;41.768;26.198;2024-01-30T12:44:57;7.33;;;3.90;;
9248;SDS011;4660;41.768;26.198;2024-01-30T12:47:26;5.23;;;3.70;;
9248;SDS011;4660;41.768;26.198;2024-01-30T12:49:52;6.23;;;3.40;;
9248;SDS011;4660;41.768;26.198;2024-01-30T12:52:20;5.27;;;3.43;;
9248;SDS011;4660;41.768;26.198;2024-01-30T12:54:47;4.53;;;3.40;;
9248;SDS011;4660;41.768;26.198;2024-01-30T12:57:13;4.90;;;3.63;;
9248;SDS011;4660;41.768;26.198;2024-01-30T12:59:39;3.90;;;2.80;;
9248;SDS011;4660;41.768;26.198;2024-01-30T13:02:04;4.23;;;2.77;;
9248;SDS011;4660;41.768;26.198;2024-01-30T13:04:34;3.47;;;3.03;;
9248;SDS011;4660;41.768;26.198;2024-01-30T13:07:00;8.47;;;3.87;;
9248;SDS011;4660;41.768;26.198;2024-01-30T13:09:26;5.57;;;3.33;;
9248;SDS011;4660;41.768;26.198;2024-01-30T13:11:52;5.33;;;3.33;;
9248;SDS011;4660;41.768;26.198;2024-01-30T13:14:18;5.77;;;3.77;;
9248;SDS011;4660;41.768;26.198;2024-01-30T13:16:44;4.73;;;3.23;;
9248;SDS011;4660;41.768;26.198;2024-01-30T13:19:10;4.83;;;3.03;;
9248;SDS011;4660;41.768;26.198;2024-01-30T13:21:36;5.73;;;3.50;;
9248;SDS011;4660;41.768;26.198;2024-01-30T13:24:01;7.73;;;4.13;;
9248;SDS011;4660;41.768;26.198;2024-01-30T13:26:29;6.83;;;4.60;;
9248;SDS011;4660;41.768;26.198;2024-01-30T13:28:57;4.53;;;3.37;;
9248;SDS011;4660;41.768;26.198;2024-01-30T13:31:25;4.10;;;3.07;;
9248;SDS011;4660;41.768;26.198;2024-01-30T13:33:52;5.77;;;3.20;;
9248;SDS011;4660;41.768;26.198;2024-01-30T13:36:18;5.43;;;3.33;;
9248;SDS011;4660;41.768;26.198;2024-01-30T13:38:43;4.80;;;3.17;;
9248;SDS011;4660;41.768;26.198;2024-01-30T13:41:09;7.87;;;3.23;;
9248;SDS011;4660;41.768;26.198;2024-01-30T13:43:36;4.80;;;3.47;;
9248;SDS011;4660;41.768;26.198;2024-01-30T13:46:01;3.83;;;3.00;;
9248;SDS011;4660;41.768;26.198;2024-01-30T13:48:28;6.23;;;3.57;;
9248;SDS011;4660;41.768;26.198;2024-01-30T13:50:54;5.00;;;3.33;;
9248;SDS011;4660;41.768;26.198;2024-01-30T13:53:20;6.73;;;2.80;;
9248;SDS011;4660;41.768;26.198;2024-01-30T13:55:46;6.53;;;4.70;;
9248;SDS011;4660;41.768;26.198;2024-01-30T13:58:12;4.47;;;3.30;;
9248;SDS011;4660;41.768;26.198;2024-01-30T14:00:37;9.53;;;4.97;;
9248;SDS011;4660;41.768;26.198;2024-01-30T14:03:03;4.60;;;2.73;;
9248;SDS011;4660;41.768;26.198;2024-01-30T14:05:30;5.50;;;3.27;;
9248;SDS011;4660;41.768;26.198;2024-01-30T14:07:56;4.50;;;3.17;;
9248;SDS011;4660;41.768;26.198;2024-01-30T14:10:24;5.00;;;3.53;;
9248;SDS011;4660;41.768;26.198;2024-01-30T14:12:52;5.83;;;3.93;;
9248;SDS011;4660;41.768;26.198;2024-01-30T14:15:18;6.33;;;4.27;;
9248;SDS011;4660;41.768;26.198;2024-01-30T14:17:45;9.00;;;4.97;;
9248;SDS011;4660;41.768;26.198;2024-01-30T14:20:15;7.63;;;4.07;;
9248;SDS011;4660;41.768;26.198;2024-01-30T14:22:44;7.57;;;4.27;;
9248;SDS011;4660;41.768;26.198;2024-01-30T14:25:12;6.13;;;2.87;;
9248;SDS011;4660;41.768;26.198;2024-01-30T14:27:38;6.40;;;3.70;;
9248;SDS011;4660;41.768;26.198;2024-01-30T14:30:06;5.03;;;4.23;;
9248;SDS011;4660;41.768;26.198;2024-01-30T14:32:36;5.80;;;3.23;;
9248;SDS011;4660;41.768;26.198;2024-01-30T14:35:04;10.60;;;4.00;;
9248;SDS011;4660;41.768;26.198;2024-01-30T14:37:31;4.70;;;2.83;;
9248;SDS011;4660;41.768;26.198;2024-01-30T14:39:58;8.03;;;2.43;;
9248;SDS011;4660;41.768;26.198;2024-01-30T14:42:26;3.73;;;2.47;;
9248;SDS011;4660;41.768;26.198;2024-01-30T14:44:53;6.93;;;3.57;;
9248;SDS011;4660;41.768;26.198;2024-01-30T14:47:20;6.63;;;3.30;;
9248;SDS011;4660;41.768;26.198;2024-01-30T14:49:46;4.33;;;3.33;;
9248;SDS011;4660;41.768;26.198;2024-01-30T14:52:13;4.50;;;3.73;;
9248;SDS011;4660;41.768;26.198;2024-01-30T14:54:40;6.43;;;4.10;;
9248;SDS011;4660;41.768;26.198;2024-01-30T14:57:08;4.27;;;3.10;;